Quevy-le-Petit, Belgium
Current Conditions -  °F | °C
As of 4:25 PM on Saturday 25 Oct 2014 (Local Time) from EBCV Reporting Station
Few Clouds Few Clouds  
Wind Chill: 59°   Ceiling: Unl
Heat Index: 59°   Visibility: 6mi
Dew Point: 48°   Wind: 7mph
Humidity: 67%   Direction: 300°WNW
Pressure: 30.12"   Gusts: NA
Location:  50.37°N, 3.94°E
Report Text: EBCV 251425Z AUTO 30006KT 9999 FEW029/// 15/09 Q1020 BLU
Loading
Personal Weather Stations






























Interactive Weather Map
Tropical Storm Tracking
New forecast layout! Learn more

10-Day Weather Forecast

Advertisements
Track Severe Weather on mobile